sensor_id;sensor_type;location;lat;lon;timestamp;P1;durP1;ratioP1;P2;durP2;ratioP2
7473;SDS011;3778;42.572;23.426;2022-12-29T00:01:23;19.90;;;11.10;;
7473;SDS011;3778;42.572;23.426;2022-12-29T00:03:50;18.83;;;10.20;;
7473;SDS011;3778;42.572;23.426;2022-12-29T00:06:17;20.60;;;10.60;;
7473;SDS011;3778;42.572;23.426;2022-12-29T00:08:43;21.07;;;9.93;;
7473;SDS011;3778;42.572;23.426;2022-12-29T00:11:11;17.03;;;9.10;;
7473;SDS011;3778;42.572;23.426;2022-12-29T00:13:40;16.13;;;9.80;;
7473;SDS011;3778;42.572;23.426;2022-12-29T00:16:24;23.83;;;10.67;;
7473;SDS011;3778;42.572;23.426;2022-12-29T00:18:51;20.63;;;10.10;;
7473;SDS011;3778;42.572;23.426;2022-12-29T00:21:19;20.50;;;10.43;;
7473;SDS011;3778;42.572;23.426;2022-12-29T00:24:04;24.43;;;11.30;;
7473;SDS011;3778;42.572;23.426;2022-12-29T00:26:49;22.47;;;11.53;;
7473;SDS011;3778;42.572;23.426;2022-12-29T00:29:41;16.30;;;9.00;;
7473;SDS011;3778;42.572;23.426;2022-12-29T00:32:25;18.37;;;9.37;;
7473;SDS011;3778;42.572;23.426;2022-12-29T00:35:10;17.77;;;10.00;;
7473;SDS011;3778;42.572;23.426;2022-12-29T00:37:45;20.60;;;10.10;;
7473;SDS011;3778;42.572;23.426;2022-12-29T00:40:42;19.53;;;10.53;;
7473;SDS011;3778;42.572;23.426;2022-12-29T00:43:27;18.57;;;10.03;;
7473;SDS011;3778;42.572;23.426;2022-12-29T00:46:12;18.33;;;10.17;;
7473;SDS011;3778;42.572;23.426;2022-12-29T00:48:39;24.27;;;11.00;;
7473;SDS011;3778;42.572;23.426;2022-12-29T00:51:23;17.40;;;10.43;;
7473;SDS011;3778;42.572;23.426;2022-12-29T00:53:50;21.43;;;11.17;;
7473;SDS011;3778;42.572;23.426;2022-12-29T00:56:16;23.13;;;10.57;;
7473;SDS011;3778;42.572;23.426;2022-12-29T00:58:43;19.83;;;10.00;;
7473;SDS011;3778;42.572;23.426;2022-12-29T01:01:10;18.20;;;8.90;;
7473;SDS011;3778;42.572;23.426;2022-12-29T01:03:38;16.93;;;10.60;;
7473;SDS011;3778;42.572;23.426;2022-12-29T01:06:06;22.97;;;11.70;;
7473;SDS011;3778;42.572;23.426;2022-12-29T01:08:34;20.43;;;10.50;;
7473;SDS011;3778;42.572;23.426;2022-12-29T01:11:02;24.33;;;10.57;;
7473;SDS011;3778;42.572;23.426;2022-12-29T01:13:29;19.03;;;10.73;;
7473;SDS011;3778;42.572;23.426;2022-12-29T01:15:56;19.33;;;10.63;;
7473;SDS011;3778;42.572;23.426;2022-12-29T01:18:23;19.53;;;9.77;;
7473;SDS011;3778;42.572;23.426;2022-12-29T01:20:52;18.27;;;10.20;;
7473;SDS011;3778;42.572;23.426;2022-12-29T01:23:24;22.63;;;12.03;;
7473;SDS011;3778;42.572;23.426;2022-12-29T01:25:51;28.33;;;11.80;;
7473;SDS011;3778;42.572;23.426;2022-12-29T01:28:18;18.47;;;9.17;;
7473;SDS011;3778;42.572;23.426;2022-12-29T01:30:45;19.67;;;10.20;;
7473;SDS011;3778;42.572;23.426;2022-12-29T01:33:11;23.27;;;13.57;;
7473;SDS011;3778;42.572;23.426;2022-12-29T01:35:38;24.97;;;10.40;;
7473;SDS011;3778;42.572;23.426;2022-12-29T01:38:06;20.47;;;10.13;;
7473;SDS011;3778;42.572;23.426;2022-12-29T01:40:33;23.80;;;10.37;;
7473;SDS011;3778;42.572;23.426;2022-12-29T01:43:00;16.60;;;9.00;;
7473;SDS011;3778;42.572;23.426;2022-12-29T01:45:26;21.30;;;9.83;;
7473;SDS011;3778;42.572;23.426;2022-12-29T01:47:54;20.20;;;11.10;;
7473;SDS011;3778;42.572;23.426;2022-12-29T01:50:24;21.53;;;11.43;;
7473;SDS011;3778;42.572;23.426;2022-12-29T01:52:55;12.90;;;6.43;;
7473;SDS011;3778;42.572;23.426;2022-12-29T01:55:27;12.83;;;7.13;;
7473;SDS011;3778;42.572;23.426;2022-12-29T01:57:58;22.27;;;10.43;;
7473;SDS011;3778;42.572;23.426;2022-12-29T02:00:29;21.40;;;10.13;;
7473;SDS011;3778;42.572;23.426;2022-12-29T02:02:56;19.77;;;9.07;;
7473;SDS011;3778;42.572;23.426;2022-12-29T02:05:24;22.73;;;9.83;;
7473;SDS011;3778;42.572;23.426;2022-12-29T02:07:53;23.10;;;10.77;;
7473;SDS011;3778;42.572;23.426;2022-12-29T02:10:21;19.13;;;9.60;;
7473;SDS011;3778;42.572;23.426;2022-12-29T02:12:52;16.93;;;10.03;;
7473;SDS011;3778;42.572;23.426;2022-12-29T02:15:20;20.03;;;10.23;;
7473;SDS011;3778;42.572;23.426;2022-12-29T02:17:53;20.10;;;10.27;;
7473;SDS011;3778;42.572;23.426;2022-12-29T02:20:37;18.73;;;10.73;;
7473;SDS011;3778;42.572;23.426;2022-12-29T02:23:35;21.07;;;10.50;;
7473;SDS011;3778;42.572;23.426;2022-12-29T02:29:29;24.13;;;11.17;;
7473;SDS011;3778;42.572;23.426;2022-12-29T02:32:15;18.73;;;9.50;;
7473;SDS011;3778;42.572;23.426;2022-12-29T02:34:49;23.47;;;11.27;;
7473;SDS011;3778;42.572;23.426;2022-12-29T02:37:26;21.00;;;11.47;;
7473;SDS011;3778;42.572;23.426;2022-12-29T02:40:01;19.40;;;9.43;;
7473;SDS011;3778;42.572;23.426;2022-12-29T02:42:40;19.33;;;10.57;;
7473;SDS011;3778;42.572;23.426;2022-12-29T02:45:15;23.13;;;11.17;;
7473;SDS011;3778;42.572;23.426;2022-12-29T02:47:48;18.07;;;9.73;;
7473;SDS011;3778;42.572;23.426;2022-12-29T02:50:20;18.30;;;9.80;;
7473;SDS011;3778;42.572;23.426;2022-12-29T02:52:51;20.07;;;10.17;;
7473;SDS011;3778;42.572;23.426;2022-12-29T02:55:23;20.13;;;10.13;;
7473;SDS011;3778;42.572;23.426;2022-12-29T02:57:49;22.87;;;11.30;;
7473;SDS011;3778;42.572;23.426;2022-12-29T03:00:41;18.00;;;9.10;;
7473;SDS011;3778;42.572;23.426;2022-12-29T03:03:22;20.27;;;10.07;;
7473;SDS011;3778;42.572;23.426;2022-12-29T03:05:58;24.07;;;11.90;;
7473;SDS011;3778;42.572;23.426;2022-12-29T03:08:35;21.77;;;11.03;;
7473;SDS011;3778;42.572;23.426;2022-12-29T03:11:10;19.13;;;9.97;;
7473;SDS011;3778;42.572;23.426;2022-12-29T03:13:53;16.90;;;8.47;;
7473;SDS011;3778;42.572;23.426;2022-12-29T03:16:43;22.90;;;11.47;;
7473;SDS011;3778;42.572;23.426;2022-12-29T03:19:14;22.10;;;11.67;;
7473;SDS011;3778;42.572;23.426;2022-12-29T03:21:46;18.03;;;9.90;;
7473;SDS011;3778;42.572;23.426;2022-12-29T03:24:34;17.07;;;7.93;;
7473;SDS011;3778;42.572;23.426;2022-12-29T03:27:05;22.50;;;11.27;;
7473;SDS011;3778;42.572;23.426;2022-12-29T03:29:35;22.30;;;10.67;;
7473;SDS011;3778;42.572;23.426;2022-12-29T03:32:05;20.13;;;10.13;;
7473;SDS011;3778;42.572;23.426;2022-12-29T03:34:36;24.83;;;11.47;;
7473;SDS011;3778;42.572;23.426;2022-12-29T03:37:05;18.70;;;10.10;;
7473;SDS011;3778;42.572;23.426;2022-12-29T03:39:36;20.43;;;11.03;;
7473;SDS011;3778;42.572;23.426;2022-12-29T03:42:04;23.93;;;10.77;;
7473;SDS011;3778;42.572;23.426;2022-12-29T03:44:36;19.87;;;7.93;;
7473;SDS011;3778;42.572;23.426;2022-12-29T03:47:06;22.13;;;10.13;;
7473;SDS011;3778;42.572;23.426;2022-12-29T03:49:33;22.40;;;11.40;;
7473;SDS011;3778;42.572;23.426;2022-12-29T03:52:01;20.00;;;9.63;;
7473;SDS011;3778;42.572;23.426;2022-12-29T03:54:28;22.93;;;10.63;;
7473;SDS011;3778;42.572;23.426;2022-12-29T03:56:55;22.53;;;10.67;;
7473;SDS011;3778;42.572;23.426;2022-12-29T03:59:22;19.27;;;9.90;;
7473;SDS011;3778;42.572;23.426;2022-12-29T04:01:49;21.77;;;12.73;;
7473;SDS011;3778;42.572;23.426;2022-12-29T04:04:16;14.83;;;9.00;;
7473;SDS011;3778;42.572;23.426;2022-12-29T04:06:43;23.30;;;11.97;;
7473;SDS011;3778;42.572;23.426;2022-12-29T04:09:11;19.97;;;10.60;;
7473;SDS011;3778;42.572;23.426;2022-12-29T04:11:37;24.07;;;11.27;;
7473;SDS011;3778;42.572;23.426;2022-12-29T04:14:04;21.83;;;11.10;;
7473;SDS011;3778;42.572;23.426;2022-12-29T04:16:31;27.00;;;11.23;;
7473;SDS011;3778;42.572;23.426;2022-12-29T04:19:00;23.63;;;11.83;;
7473;SDS011;3778;42.572;23.426;2022-12-29T04:21:27;16.67;;;9.90;;
7473;SDS011;3778;42.572;23.426;2022-12-29T04:23:53;20.97;;;11.03;;
7473;SDS011;3778;42.572;23.426;2022-12-29T04:26:21;20.87;;;10.43;;
7473;SDS011;3778;42.572;23.426;2022-12-29T04:28:47;20.97;;;9.57;;
7473;SDS011;3778;42.572;23.426;2022-12-29T04:31:14;25.13;;;8.63;;
7473;SDS011;3778;42.572;23.426;2022-12-29T04:33:41;25.57;;;9.83;;
7473;SDS011;3778;42.572;23.426;2022-12-29T04:36:07;21.33;;;11.23;;
7473;SDS011;3778;42.572;23.426;2022-12-29T04:38:34;20.93;;;11.10;;
7473;SDS011;3778;42.572;23.426;2022-12-29T04:41:01;20.10;;;10.83;;
7473;SDS011;3778;42.572;23.426;2022-12-29T04:43:30;15.13;;;7.97;;
7473;SDS011;3778;42.572;23.426;2022-12-29T04:45:57;18.10;;;9.53;;
7473;SDS011;3778;42.572;23.426;2022-12-29T04:48:23;17.30;;;8.97;;
7473;SDS011;3778;42.572;23.426;2022-12-29T04:50:50;18.40;;;10.13;;
7473;SDS011;3778;42.572;23.426;2022-12-29T04:53:17;17.10;;;8.20;;
7473;SDS011;3778;42.572;23.426;2022-12-29T04:55:47;18.13;;;10.30;;
7473;SDS011;3778;42.572;23.426;2022-12-29T04:58:15;20.07;;;9.60;;
7473;SDS011;3778;42.572;23.426;2022-12-29T05:00:43;17.20;;;7.80;;
7473;SDS011;3778;42.572;23.426;2022-12-29T05:03:09;23.93;;;11.97;;
7473;SDS011;3778;42.572;23.426;2022-12-29T05:05:36;21.40;;;10.33;;
7473;SDS011;3778;42.572;23.426;2022-12-29T05:08:03;16.23;;;8.90;;
7473;SDS011;3778;42.572;23.426;2022-12-29T05:10:30;17.33;;;9.30;;
7473;SDS011;3778;42.572;23.426;2022-12-29T05:12:57;19.27;;;10.77;;
7473;SDS011;3778;42.572;23.426;2022-12-29T05:15:24;22.93;;;9.17;;
7473;SDS011;3778;42.572;23.426;2022-12-29T05:17:52;20.27;;;9.87;;
7473;SDS011;3778;42.572;23.426;2022-12-29T05:20:19;19.40;;;9.97;;
7473;SDS011;3778;42.572;23.426;2022-12-29T05:22:46;20.17;;;9.23;;
7473;SDS011;3778;42.572;23.426;2022-12-29T05:25:12;19.40;;;10.43;;
7473;SDS011;3778;42.572;23.426;2022-12-29T05:27:39;23.87;;;10.80;;
7473;SDS011;3778;42.572;23.426;2022-12-29T05:30:06;21.33;;;9.80;;
7473;SDS011;3778;42.572;23.426;2022-12-29T05:32:34;20.93;;;10.87;;
7473;SDS011;3778;42.572;23.426;2022-12-29T05:35:02;17.67;;;10.27;;
7473;SDS011;3778;42.572;23.426;2022-12-29T05:37:29;22.17;;;10.53;;
7473;SDS011;3778;42.572;23.426;2022-12-29T05:39:56;27.97;;;13.00;;
7473;SDS011;3778;42.572;23.426;2022-12-29T05:42:24;23.60;;;11.47;;
7473;SDS011;3778;42.572;23.426;2022-12-29T05:44:51;26.53;;;11.57;;
7473;SDS011;3778;42.572;23.426;2022-12-29T05:47:18;26.20;;;12.37;;
7473;SDS011;3778;42.572;23.426;2022-12-29T05:49:45;20.60;;;10.17;;
7473;SDS011;3778;42.572;23.426;2022-12-29T05:52:13;27.60;;;13.47;;
7473;SDS011;3778;42.572;23.426;2022-12-29T05:54:40;25.40;;;12.63;;
7473;SDS011;3778;42.572;23.426;2022-12-29T05:57:07;21.77;;;9.03;;
7473;SDS011;3778;42.572;23.426;2022-12-29T05:59:34;19.83;;;10.23;;
7473;SDS011;3778;42.572;23.426;2022-12-29T06:02:01;20.67;;;12.07;;
7473;SDS011;3778;42.572;23.426;2022-12-29T06:04:28;20.17;;;10.83;;
7473;SDS011;3778;42.572;23.426;2022-12-29T06:06:54;21.97;;;11.67;;
7473;SDS011;3778;42.572;23.426;2022-12-29T06:09:23;32.47;;;12.30;;
7473;SDS011;3778;42.572;23.426;2022-12-29T06:11:49;22.73;;;11.17;;
7473;SDS011;3778;42.572;23.426;2022-12-29T06:14:16;21.17;;;10.13;;
7473;SDS011;3778;42.572;23.426;2022-12-29T06:16:43;20.53;;;9.63;;
7473;SDS011;3778;42.572;23.426;2022-12-29T06:19:09;23.27;;;11.97;;
7473;SDS011;3778;42.572;23.426;2022-12-29T06:21:36;23.17;;;11.47;;
7473;SDS011;3778;42.572;23.426;2022-12-29T06:24:03;23.00;;;11.83;;
7473;SDS011;3778;42.572;23.426;2022-12-29T06:26:32;18.87;;;10.50;;
7473;SDS011;3778;42.572;23.426;2022-12-29T06:28:58;19.97;;;9.87;;
7473;SDS011;3778;42.572;23.426;2022-12-29T06:31:25;20.20;;;11.73;;
7473;SDS011;3778;42.572;23.426;2022-12-29T06:33:52;21.57;;;11.03;;
7473;SDS011;3778;42.572;23.426;2022-12-29T06:36:18;31.93;;;13.30;;
7473;SDS011;3778;42.572;23.426;2022-12-29T06:38:45;21.27;;;10.07;;
7473;SDS011;3778;42.572;23.426;2022-12-29T06:41:12;28.70;;;12.00;;
7473;SDS011;3778;42.572;23.426;2022-12-29T06:43:40;30.53;;;13.97;;
7473;SDS011;3778;42.572;23.426;2022-12-29T06:46:07;26.80;;;12.10;;
7473;SDS011;3778;42.572;23.426;2022-12-29T06:48:33;25.30;;;11.93;;
7473;SDS011;3778;42.572;23.426;2022-12-29T06:51:00;27.53;;;11.63;;
7473;SDS011;3778;42.572;23.426;2022-12-29T06:53:27;22.90;;;10.90;;
7473;SDS011;3778;42.572;23.426;2022-12-29T06:55:53;21.67;;;10.40;;
7473;SDS011;3778;42.572;23.426;2022-12-29T06:58:21;22.40;;;12.90;;
7473;SDS011;3778;42.572;23.426;2022-12-29T07:00:50;23.17;;;11.97;;
7473;SDS011;3778;42.572;23.426;2022-12-29T07:03:16;24.47;;;12.67;;
7473;SDS011;3778;42.572;23.426;2022-12-29T07:05:43;21.67;;;11.30;;
7473;SDS011;3778;42.572;23.426;2022-12-29T07:08:10;23.13;;;10.97;;
7473;SDS011;3778;42.572;23.426;2022-12-29T07:10:37;24.23;;;12.40;;
7473;SDS011;3778;42.572;23.426;2022-12-29T07:13:07;20.77;;;10.90;;
7473;SDS011;3778;42.572;23.426;2022-12-29T07:15:34;19.07;;;9.87;;
7473;SDS011;3778;42.572;23.426;2022-12-29T07:18:03;21.27;;;11.33;;
7473;SDS011;3778;42.572;23.426;2022-12-29T07:20:30;20.33;;;9.57;;
7473;SDS011;3778;42.572;23.426;2022-12-29T07:22:57;20.50;;;10.30;;
7473;SDS011;3778;42.572;23.426;2022-12-29T07:25:24;30.07;;;11.53;;
7473;SDS011;3778;42.572;23.426;2022-12-29T07:27:51;20.20;;;10.77;;
7473;SDS011;3778;42.572;23.426;2022-12-29T07:30:17;21.57;;;11.30;;
7473;SDS011;3778;42.572;23.426;2022-12-29T07:32:44;20.13;;;11.10;;
7473;SDS011;3778;42.572;23.426;2022-12-29T07:35:12;20.73;;;9.67;;
7473;SDS011;3778;42.572;23.426;2022-12-29T07:37:39;21.23;;;10.77;;
7473;SDS011;3778;42.572;23.426;2022-12-29T07:40:06;23.67;;;11.63;;
7473;SDS011;3778;42.572;23.426;2022-12-29T07:42:35;20.57;;;11.80;;
7473;SDS011;3778;42.572;23.426;2022-12-29T07:45:02;20.17;;;10.63;;
7473;SDS011;3778;42.572;23.426;2022-12-29T07:47:29;20.13;;;9.77;;
7473;SDS011;3778;42.572;23.426;2022-12-29T07:49:55;18.60;;;10.17;;
7473;SDS011;3778;42.572;23.426;2022-12-29T07:52:23;19.27;;;10.60;;
7473;SDS011;3778;42.572;23.426;2022-12-29T07:54:50;17.90;;;9.37;;
7473;SDS011;3778;42.572;23.426;2022-12-29T07:57:17;18.30;;;9.47;;
7473;SDS011;3778;42.572;23.426;2022-12-29T07:59:43;26.17;;;11.97;;
7473;SDS011;3778;42.572;23.426;2022-12-29T08:02:10;17.63;;;9.80;;
7473;SDS011;3778;42.572;23.426;2022-12-29T08:04:37;21.43;;;10.83;;
7473;SDS011;3778;42.572;23.426;2022-12-29T08:07:04;14.17;;;8.87;;
7473;SDS011;3778;42.572;23.426;2022-12-29T08:09:32;22.40;;;10.03;;
7473;SDS011;3778;42.572;23.426;2022-12-29T08:11:59;18.03;;;10.60;;
7473;SDS011;3778;42.572;23.426;2022-12-29T08:14:25;20.37;;;9.10;;
7473;SDS011;3778;42.572;23.426;2022-12-29T08:16:52;19.20;;;9.97;;
7473;SDS011;3778;42.572;23.426;2022-12-29T08:19:19;17.13;;;10.20;;
7473;SDS011;3778;42.572;23.426;2022-12-29T08:21:45;19.37;;;8.63;;
7473;SDS011;3778;42.572;23.426;2022-12-29T08:24:12;21.60;;;9.93;;
7473;SDS011;3778;42.572;23.426;2022-12-29T08:26:40;21.37;;;10.47;;
7473;SDS011;3778;42.572;23.426;2022-12-29T08:29:07;18.87;;;9.50;;
7473;SDS011;3778;42.572;23.426;2022-12-29T08:31:33;20.87;;;10.73;;
7473;SDS011;3778;42.572;23.426;2022-12-29T08:34:00;21.13;;;10.13;;
7473;SDS011;3778;42.572;23.426;2022-12-29T08:36:28;22.57;;;11.57;;
7473;SDS011;3778;42.572;23.426;2022-12-29T08:38:55;20.20;;;10.40;;
7473;SDS011;3778;42.572;23.426;2022-12-29T08:41:21;20.57;;;10.87;;
7473;SDS011;3778;42.572;23.426;2022-12-29T08:43:50;21.13;;;11.40;;
7473;SDS011;3778;42.572;23.426;2022-12-29T08:46:16;20.43;;;9.83;;
7473;SDS011;3778;42.572;23.426;2022-12-29T08:48:44;24.67;;;10.93;;
7473;SDS011;3778;42.572;23.426;2022-12-29T08:51:11;14.20;;;7.80;;
7473;SDS011;3778;42.572;23.426;2022-12-29T08:53:38;22.60;;;10.37;;
7473;SDS011;3778;42.572;23.426;2022-12-29T08:56:05;18.10;;;10.07;;
7473;SDS011;3778;42.572;23.426;2022-12-29T08:58:32;18.93;;;9.90;;
7473;SDS011;3778;42.572;23.426;2022-12-29T09:01:01;21.47;;;10.77;;
7473;SDS011;3778;42.572;23.426;2022-12-29T09:03:28;17.90;;;9.63;;
7473;SDS011;3778;42.572;23.426;2022-12-29T09:05:54;17.63;;;10.30;;
7473;SDS011;3778;42.572;23.426;2022-12-29T09:08:21;23.57;;;11.37;;
7473;SDS011;3778;42.572;23.426;2022-12-29T09:10:48;13.07;;;7.87;;
7473;SDS011;3778;42.572;23.426;2022-12-29T09:13:16;17.37;;;9.57;;
7473;SDS011;3778;42.572;23.426;2022-12-29T09:15:43;23.17;;;11.10;;
7473;SDS011;3778;42.572;23.426;2022-12-29T09:18:12;17.43;;;9.17;;
7473;SDS011;3778;42.572;23.426;2022-12-29T09:20:38;18.73;;;9.43;;
7473;SDS011;3778;42.572;23.426;2022-12-29T09:23:05;18.13;;;10.30;;
7473;SDS011;3778;42.572;23.426;2022-12-29T09:25:32;16.60;;;8.73;;
7473;SDS011;3778;42.572;23.426;2022-12-29T09:27:59;19.23;;;9.47;;
7473;SDS011;3778;42.572;23.426;2022-12-29T09:30:29;24.90;;;11.77;;
7473;SDS011;3778;42.572;23.426;2022-12-29T09:32:55;19.87;;;10.63;;
7473;SDS011;3778;42.572;23.426;2022-12-29T09:35:23;22.80;;;10.63;;
7473;SDS011;3778;42.572;23.426;2022-12-29T09:37:50;19.17;;;10.53;;
7473;SDS011;3778;42.572;23.426;2022-12-29T09:40:21;19.50;;;10.10;;
7473;SDS011;3778;42.572;23.426;2022-12-29T09:42:55;22.57;;;11.57;;
7473;SDS011;3778;42.572;23.426;2022-12-29T09:45:32;17.73;;;10.13;;
7473;SDS011;3778;42.572;23.426;2022-12-29T09:48:03;18.67;;;9.90;;
7473;SDS011;3778;42.572;23.426;2022-12-29T09:50:34;21.23;;;10.83;;
7473;SDS011;3778;42.572;23.426;2022-12-29T09:53:05;21.20;;;12.23;;
7473;SDS011;3778;42.572;23.426;2022-12-29T09:55:41;28.10;;;13.67;;
7473;SDS011;3778;42.572;23.426;2022-12-29T09:58:12;31.33;;;15.43;;
7473;SDS011;3778;42.572;23.426;2022-12-29T10:00:47;26.07;;;14.53;;
7473;SDS011;3778;42.572;23.426;2022-12-29T10:03:19;25.93;;;13.80;;
7473;SDS011;3778;42.572;23.426;2022-12-29T10:05:50;28.27;;;15.90;;
7473;SDS011;3778;42.572;23.426;2022-12-29T10:08:24;28.97;;;15.87;;
7473;SDS011;3778;42.572;23.426;2022-12-29T10:10:56;29.30;;;16.43;;
7473;SDS011;3778;42.572;23.426;2022-12-29T10:13:34;27.53;;;14.80;;
7473;SDS011;3778;42.572;23.426;2022-12-29T10:16:08;28.30;;;14.33;;
7473;SDS011;3778;42.572;23.426;2022-12-29T10:21:47;23.97;;;13.50;;
7473;SDS011;3778;42.572;23.426;2022-12-29T10:24:25;24.07;;;13.43;;
7473;SDS011;3778;42.572;23.426;2022-12-29T10:26:55;25.20;;;12.93;;
7473;SDS011;3778;42.572;23.426;2022-12-29T10:29:25;22.77;;;13.27;;
7473;SDS011;3778;42.572;23.426;2022-12-29T10:31:59;24.37;;;13.17;;
7473;SDS011;3778;42.572;23.426;2022-12-29T10:34:27;28.30;;;14.50;;
7473;SDS011;3778;42.572;23.426;2022-12-29T10:37:00;24.27;;;13.37;;
7473;SDS011;3778;42.572;23.426;2022-12-29T10:39:30;26.33;;;15.17;;
7473;SDS011;3778;42.572;23.426;2022-12-29T10:42:04;28.13;;;14.23;;
7473;SDS011;3778;42.572;23.426;2022-12-29T10:44:37;28.73;;;15.67;;
7473;SDS011;3778;42.572;23.426;2022-12-29T10:47:05;24.93;;;14.27;;
7473;SDS011;3778;42.572;23.426;2022-12-29T10:49:38;23.60;;;13.30;;
7473;SDS011;3778;42.572;23.426;2022-12-29T10:52:09;25.77;;;14.50;;
7473;SDS011;3778;42.572;23.426;2022-12-29T10:54:38;27.27;;;15.60;;
7473;SDS011;3778;42.572;23.426;2022-12-29T10:57:13;27.93;;;15.60;;
7473;SDS011;3778;42.572;23.426;2022-12-29T10:59:43;28.23;;;16.03;;
7473;SDS011;3778;42.572;23.426;2022-12-29T11:02:15;30.67;;;16.33;;
7473;SDS011;3778;42.572;23.426;2022-12-29T11:05:02;29.57;;;16.10;;
7473;SDS011;3778;42.572;23.426;2022-12-29T11:07:33;33.03;;;16.93;;
7473;SDS011;3778;42.572;23.426;2022-12-29T11:10:18;30.53;;;15.20;;
7473;SDS011;3778;42.572;23.426;2022-12-29T11:12:55;26.77;;;14.80;;
7473;SDS011;3778;42.572;23.426;2022-12-29T11:15:23;27.17;;;15.17;;
7473;SDS011;3778;42.572;23.426;2022-12-29T11:17:50;25.67;;;14.53;;
7473;SDS011;3778;42.572;23.426;2022-12-29T11:20:29;22.77;;;13.90;;
7473;SDS011;3778;42.572;23.426;2022-12-29T11:23:00;28.00;;;14.97;;
7473;SDS011;3778;42.572;23.426;2022-12-29T11:25:28;28.10;;;15.70;;
7473;SDS011;3778;42.572;23.426;2022-12-29T11:27:56;26.00;;;15.20;;
7473;SDS011;3778;42.572;23.426;2022-12-29T11:30:24;21.77;;;13.53;;
7473;SDS011;3778;42.572;23.426;2022-12-29T11:32:52;20.00;;;12.47;;
7473;SDS011;3778;42.572;23.426;2022-12-29T11:35:31;25.67;;;14.67;;
7473;SDS011;3778;42.572;23.426;2022-12-29T11:38:01;26.13;;;14.10;;
7473;SDS011;3778;42.572;23.426;2022-12-29T11:40:30;24.87;;;15.00;;
7473;SDS011;3778;42.572;23.426;2022-12-29T11:43:00;24.57;;;14.13;;
7473;SDS011;3778;42.572;23.426;2022-12-29T11:45:29;25.67;;;15.37;;
7473;SDS011;3778;42.572;23.426;2022-12-29T11:47:58;21.90;;;13.17;;
7473;SDS011;3778;42.572;23.426;2022-12-29T11:50:32;27.10;;;14.83;;
7473;SDS011;3778;42.572;23.426;2022-12-29T11:53:03;21.80;;;13.77;;
7473;SDS011;3778;42.572;23.426;2022-12-29T11:55:32;23.23;;;15.57;;
7473;SDS011;3778;42.572;23.426;2022-12-29T11:58:00;25.57;;;15.73;;
7473;SDS011;3778;42.572;23.426;2022-12-29T12:00:30;25.17;;;14.00;;
7473;SDS011;3778;42.572;23.426;2022-12-29T12:03:00;23.67;;;14.37;;
7473;SDS011;3778;42.572;23.426;2022-12-29T12:05:40;22.97;;;14.23;;
7473;SDS011;3778;42.572;23.426;2022-12-29T12:08:18;25.83;;;14.60;;
7473;SDS011;3778;42.572;23.426;2022-12-29T12:10:53;29.63;;;16.57;;
7473;SDS011;3778;42.572;23.426;2022-12-29T12:13:25;27.40;;;13.93;;
7473;SDS011;3778;42.572;23.426;2022-12-29T12:15:57;23.63;;;14.50;;
7473;SDS011;3778;42.572;23.426;2022-12-29T12:18:33;26.97;;;13.90;;
7473;SDS011;3778;42.572;23.426;2022-12-29T12:21:10;23.53;;;13.07;;
7473;SDS011;3778;42.572;23.426;2022-12-29T12:23:52;20.30;;;12.13;;
7473;SDS011;3778;42.572;23.426;2022-12-29T12:26:28;28.27;;;15.67;;
7473;SDS011;3778;42.572;23.426;2022-12-29T12:29:01;25.70;;;14.80;;
7473;SDS011;3778;42.572;23.426;2022-12-29T12:31:40;25.60;;;15.03;;
7473;SDS011;3778;42.572;23.426;2022-12-29T12:34:13;30.13;;;17.33;;
7473;SDS011;3778;42.572;23.426;2022-12-29T12:39:45;24.93;;;15.67;;
7473;SDS011;3778;42.572;23.426;2022-12-29T12:42:25;23.50;;;14.87;;
7473;SDS011;3778;42.572;23.426;2022-12-29T12:45:06;23.73;;;14.20;;
7473;SDS011;3778;42.572;23.426;2022-12-29T12:47:58;26.93;;;15.60;;
7473;SDS011;3778;42.572;23.426;2022-12-29T12:50:39;27.97;;;16.53;;
7473;SDS011;3778;42.572;23.426;2022-12-29T12:53:21;27.50;;;15.13;;
7473;SDS011;3778;42.572;23.426;2022-12-29T12:58:55;30.07;;;17.73;;
7473;SDS011;3778;42.572;23.426;2022-12-29T13:01:33;29.10;;;16.80;;
7473;SDS011;3778;42.572;23.426;2022-12-29T13:07:07;28.47;;;17.27;;
7473;SDS011;3778;42.572;23.426;2022-12-29T13:12:43;29.00;;;16.87;;
7473;SDS011;3778;42.572;23.426;2022-12-29T13:15:22;29.33;;;17.67;;
7473;SDS011;3778;42.572;23.426;2022-12-29T13:18:07;28.67;;;15.87;;
7473;SDS011;3778;42.572;23.426;2022-12-29T13:20:45;24.17;;;14.67;;
7473;SDS011;3778;42.572;23.426;2022-12-29T13:23:18;25.90;;;15.80;;
7473;SDS011;3778;42.572;23.426;2022-12-29T13:25:52;28.03;;;16.87;;
7473;SDS011;3778;42.572;23.426;2022-12-29T13:28:30;22.90;;;14.97;;
7473;SDS011;3778;42.572;23.426;2022-12-29T13:31:04;21.37;;;14.17;;
7473;SDS011;3778;42.572;23.426;2022-12-29T13:33:40;23.00;;;14.87;;
7473;SDS011;3778;42.572;23.426;2022-12-29T13:36:20;20.43;;;13.40;;
7473;SDS011;3778;42.572;23.426;2022-12-29T13:38:51;22.27;;;14.40;;
7473;SDS011;3778;42.572;23.426;2022-12-29T13:41:29;20.57;;;13.30;;
7473;SDS011;3778;42.572;23.426;2022-12-29T13:44:01;24.13;;;12.97;;
7473;SDS011;3778;42.572;23.426;2022-12-29T13:46:31;24.77;;;13.33;;
7473;SDS011;3778;42.572;23.426;2022-12-29T13:49:04;20.10;;;13.57;;
7473;SDS011;3778;42.572;23.426;2022-12-29T13:51:33;21.53;;;13.20;;
7473;SDS011;3778;42.572;23.426;2022-12-29T13:54:03;45.00;;;24.93;;
7473;SDS011;3778;42.572;23.426;2022-12-29T13:56:38;39.13;;;18.07;;
7473;SDS011;3778;42.572;23.426;2022-12-29T13:59:12;31.63;;;19.77;;
7473;SDS011;3778;42.572;23.426;2022-12-29T14:01:47;25.83;;;15.53;;
7473;SDS011;3778;42.572;23.426;2022-12-29T14:04:24;26.00;;;14.33;;
7473;SDS011;3778;42.572;23.426;2022-12-29T14:06:59;27.90;;;15.50;;
7473;SDS011;3778;42.572;23.426;2022-12-29T14:09:39;26.10;;;16.03;;
7473;SDS011;3778;42.572;23.426;2022-12-29T14:12:21;24.87;;;15.63;;
7473;SDS011;3778;42.572;23.426;2022-12-29T14:15:03;24.97;;;15.97;;
7473;SDS011;3778;42.572;23.426;2022-12-29T14:17:32;26.23;;;16.40;;
7473;SDS011;3778;42.572;23.426;2022-12-29T14:19:59;25.23;;;15.77;;
7473;SDS011;3778;42.572;23.426;2022-12-29T14:22:26;29.87;;;15.60;;
7473;SDS011;3778;42.572;23.426;2022-12-29T14:24:54;23.17;;;14.57;;
7473;SDS011;3778;42.572;23.426;2022-12-29T14:33:24;24.87;;;12.03;;
7473;SDS011;3778;42.572;23.426;2022-12-29T14:35:54;21.97;;;12.47;;
7473;SDS011;3778;42.572;23.426;2022-12-29T14:38:25;22.57;;;11.83;;
7473;SDS011;3778;42.572;23.426;2022-12-29T14:44:10;22.70;;;12.23;;
7473;SDS011;3778;42.572;23.426;2022-12-29T14:46:45;20.47;;;12.90;;
7473;SDS011;3778;42.572;23.426;2022-12-29T14:49:17;19.47;;;12.90;;
7473;SDS011;3778;42.572;23.426;2022-12-29T14:51:47;19.33;;;10.97;;
7473;SDS011;3778;42.572;23.426;2022-12-29T14:57:29;25.57;;;12.07;;
7473;SDS011;3778;42.572;23.426;2022-12-29T15:00:05;23.80;;;12.87;;
7473;SDS011;3778;42.572;23.426;2022-12-29T15:02:41;20.63;;;12.60;;
7473;SDS011;3778;42.572;23.426;2022-12-29T15:05:22;19.63;;;11.20;;
7473;SDS011;3778;42.572;23.426;2022-12-29T15:07:53;22.77;;;11.83;;
7473;SDS011;3778;42.572;23.426;2022-12-29T15:10:22;26.07;;;13.37;;
7473;SDS011;3778;42.572;23.426;2022-12-29T15:12:53;23.00;;;12.97;;
7473;SDS011;3778;42.572;23.426;2022-12-29T15:15:21;23.20;;;13.67;;
7473;SDS011;3778;42.572;23.426;2022-12-29T15:17:49;21.03;;;13.13;;
7473;SDS011;3778;42.572;23.426;2022-12-29T15:20:22;21.17;;;12.73;;
7473;SDS011;3778;42.572;23.426;2022-12-29T15:22:53;22.37;;;12.47;;
7473;SDS011;3778;42.572;23.426;2022-12-29T15:25:22;21.37;;;11.43;;
7473;SDS011;3778;42.572;23.426;2022-12-29T15:27:50;16.97;;;11.23;;
7473;SDS011;3778;42.572;23.426;2022-12-29T15:30:18;25.00;;;14.80;;